Lee Ann Ingram — WDB8152 — position and weather

sailwx.info

Track history (hours):
 
Tides and Currents Weather Stations Pressure Air Temp Water Temp Dewpoint Dewpoint Depression Visibility Wind Speed Wind Dir Waves Ship Positions

Lee Ann Ingram

Owner: Ingram Barge Company LLC, Nashville, TN. More information available from US FCC via Universal Licensing System and Coast Guard Vessel Documentation Center.

Last reported at 2017-Sep-16 06:07 UTC. Time now 2017-Sep-22 02:47 UTC.
Position N 38°53' W 090°32'.

Length 48 m; draft 2.9 m.

Type: Ship (hazmat cat B). MMSI: 366953880.

Date/timePositionNaut miles runAvg speedWind from/ knotsBaromVisibWave heightAir tempDewpointWater temp
2017-Sep-16 06:07N 38°53' W 090°32'0 3.8
2017-Sep-16 06:00N 38°53' W 090°32'2 3.5
2017-Sep-16 05:30N 38°55' W 090°31'2 3.4
2017-Sep-16 05:00N 38°56' W 090°29'2 3.3
2017-Sep-16 04:30N 38°57' W 090°28'2 3.6
2017-Sep-16 04:00N 38°58' W 090°26'2 3.6
2017-Sep-16 03:30N 38°58' W 090°23'2 3.8
2017-Sep-16 03:00N 38°57' W 090°21'2 4.2
2017-Sep-16 02:30N 38°55' W 090°19'2 3.3
2017-Sep-16 02:00N 38°55' W 090°17'0 0.0
2017-Sep-14 07:08N 38°55' W 090°17'1 4.8
2017-Sep-14 07:00N 38°55' W 090°18'2 4.4
2017-Sep-14 06:30N 38°56' W 090°20'2 4.7
2017-Sep-14 06:00N 38°57' W 090°23'2 4.6
2017-Sep-14 05:30N 38°58' W 090°26'2 4.8
2017-Sep-14 05:00N 38°57' W 090°29'3 5.1
2017-Sep-14 04:30N 38°55' W 090°31'  
Track history (hours):
 
Tides and Currents Weather Stations Pressure Air Temp Water Temp Dewpoint Dewpoint Depression Visibility Wind Speed Wind Dir Waves Ship Positions

Lee Ann Ingram

Owner: Ingram Barge Company LLC, Nashville, TN. More information available from US FCC via Universal Licensing System and Coast Guard Vessel Documentation Center.

Last reported at 2017-Sep-16 06:07 UTC. Time now 2017-Sep-22 02:47 UTC.
Position N 38°53' W 090°32'.

Length 48 m; draft 2.9 m.

Type: Ship (hazmat cat B). MMSI: 366953880.

Date/timePositionNaut miles runAvg speedWind from/ knotsBaromVisibWave heightAir tempDewpointWater temp
2017-Sep-16 06:07N 38°53' W 090°32'0 3.8
2017-Sep-16 06:00N 38°53' W 090°32'2 3.5
2017-Sep-16 05:30N 38°55' W 090°31'2 3.4
2017-Sep-16 05:00N 38°56' W 090°29'2 3.3
2017-Sep-16 04:30N 38°57' W 090°28'2 3.6
2017-Sep-16 04:00N 38°58' W 090°26'2 3.6
2017-Sep-16 03:30N 38°58' W 090°23'2 3.8
2017-Sep-16 03:00N 38°57' W 090°21'2 4.2
2017-Sep-16 02:30N 38°55' W 090°19'2 3.3
2017-Sep-16 02:00N 38°55' W 090°17'0 0.0
2017-Sep-14 07:08N 38°55' W 090°17'1 4.8
2017-Sep-14 07:00N 38°55' W 090°18'2 4.4
2017-Sep-14 06:30N 38°56' W 090°20'2 4.7
2017-Sep-14 06:00N 38°57' W 090°23'2 4.6
2017-Sep-14 05:30N 38°58' W 090°26'2 4.8
2017-Sep-14 05:00N 38°57' W 090°29'3 5.1
2017-Sep-14 04:30N 38°55' W 090°31'  

Dump ship's entire track history